Mazie, Oklahoma
Current Conditions -  °F | °C
As of 10:15 AM on Tuesday 21 Oct 2014 (Local Time) from KGCM Reporting Station
Clear Clear  
Wind Chill: 63°   Ceiling: Unl
Heat Index: 63°   Visibility: 10mi
Dew Point: 61°   Wind: 6mph
Humidity: 94%   Direction: 140°SE
Pressure: 30.16"   Gusts: NA
Location:  36.11°N, 95.36°W
Report Text: KGCM 211515Z AUTO 14005KT 10SM CLR 17/16 A3016 RMK AO2
Loading
Personal Weather Stations






























Interactive Weather Map
Tropical Storm Tracking
New forecast layout! Learn more

10-Day Weather Forecast

Advertisements
Track Severe Weather on mobile